General Aviation Weather

Text Reports

Enter one or more of the following location identifiers separated by a space:

Zip Code, Four-Character ICAO or Three-Character IATA airport codes.

METAR - Aviation Routine Weather Report
KGWB - Auburn, Indiana
Updated at 12:35 AM GMT on June 04, 2015 (8:35 PM EDT):
METAR KGWB 040035Z AUTO 00000KT 10SM OVC049 20/14 A3004 RMK AO2
TAF - Terminal Area Forecast
KGWB - Auburn, Indiana
Updated at 12:35 AM GMT on June 04, 2015 (8:35 PM EDT):
No TAF is currently available for this location.
Decoded:
No decoded TAF is available.
PIREP - Pilot Weather Report
KGWB - Auburn, Indiana
Updated at 12:35 AM GMT on June 04, 2015 (8:35 PM EDT):
No PIREP is currently available for this location.
AIRMET - Airmens Meteorological Information
KGWB - Auburn, Indiana
Updated at 12:35 AM GMT on June 04, 2015 (8:35 PM EDT):
No AIRMET is currently available for this location.
SIGMET - Significant Meteorological Information
KGWB - Auburn, Indiana
Updated at 12:35 AM GMT on June 04, 2015 (8:35 PM EDT):
No SIGMET is currently available for this location.
NOTAM - Notice to Airmen
KGWB - Auburn, Indiana
Updated at 12:35 AM GMT on June 04, 2015 (8:35 PM EDT):
No NOTAM is currently available for this location.
Forecast Area
KGWB - Auburn, Indiana
Updated at 12:35 AM GMT on June 04, 2015 (8:35 PM EDT):
No NOTAM is currently available for this location.
Aviation Weather Maps